createdAt,value
2022-09-05T00:02:02.735Z,14.55
2022-09-05T00:04:56.871Z,14.67
2022-09-05T00:07:59.427Z,14.79
2022-09-05T00:11:18.138Z,14.85
2022-09-05T00:13:38.479Z,14.86
2022-09-05T00:16:13.602Z,14.83
2022-09-05T00:24:21.957Z,14.84
2022-09-05T00:24:25.456Z,14.81
2022-09-05T00:25:30.448Z,14.80
2022-09-05T00:28:26.069Z,14.84
2022-09-05T00:31:57.459Z,14.82
2022-09-05T00:35:13.969Z,14.78
2022-09-05T00:37:47.318Z,14.74
2022-09-05T00:40:19.368Z,14.67
2022-09-05T00:42:53.129Z,14.64
2022-09-05T00:46:10.322Z,14.61
2022-09-05T00:49:02.742Z,14.62
2022-09-05T00:51:37.326Z,14.56
2022-09-05T00:54:41.728Z,14.49
2022-09-05T00:57:23.914Z,14.50
2022-09-05T01:00:10.034Z,14.38
2022-09-05T01:03:20.997Z,14.37
2022-09-05T01:06:02.275Z,14.27
2022-09-05T01:09:08.271Z,14.25
2022-09-05T01:12:00.119Z,14.21
2022-09-05T01:15:21.303Z,14.22
2022-09-05T01:18:00.437Z,14.14
2022-09-05T01:20:44.388Z,14.08
2022-09-05T01:23:49.741Z,14.12
2022-09-05T01:26:42.648Z,14.16
2022-09-05T01:29:25.004Z,14.22
2022-09-05T01:32:10.447Z,14.14
2022-09-05T01:35:10.681Z,14.13
2022-09-05T01:37:50.653Z,14.07
2022-09-05T01:40:36.558Z,13.95
2022-09-05T01:43:52.685Z,13.83
2022-09-05T01:46:27.795Z,13.82
2022-09-05T01:49:15.671Z,13.73
2022-09-05T01:52:28.611Z,13.72
2022-09-05T01:55:32.228Z,13.71
2022-09-05T01:58:20.174Z,13.64
2022-09-05T02:01:26.600Z,13.63
2022-09-05T02:04:17.502Z,13.50
2022-09-05T02:07:19.245Z,13.51
2022-09-05T02:10:49.970Z,13.54
2022-09-05T02:13:35.991Z,13.65
2022-09-05T02:16:17.570Z,13.72
2022-09-05T02:19:19.210Z,13.63
2022-09-05T02:22:11.000Z,13.55
2022-09-05T02:24:47.766Z,13.53
2022-09-05T02:28:03.934Z,13.56
2022-09-05T02:30:29.839Z,13.55
2022-09-05T02:33:34.452Z,13.53
2022-09-05T02:37:01.051Z,13.47
2022-09-05T02:45:02.776Z,13.44
2022-09-05T02:45:08.710Z,13.46
2022-09-05T02:46:07.356Z,13.48
2022-09-05T02:48:57.193Z,13.41
2022-09-05T02:57:30.072Z,13.35
2022-09-05T02:57:42.313Z,13.12
2022-09-05T02:58:07.489Z,13.10
2022-09-05T03:00:51.095Z,13.17
2022-09-05T03:03:39.245Z,13.21
2022-09-05T03:06:35.016Z,13.23
2022-09-05T03:09:16.749Z,13.14
2022-09-05T03:12:21.730Z,13.12
2022-09-05T03:15:46.182Z,13.05
2022-09-05T03:19:25.452Z,12.97
2022-09-05T03:22:36.856Z,12.87
2022-09-05T03:25:48.558Z,12.82
2022-09-05T03:28:51.749Z,12.84
2022-09-05T03:31:56.846Z,12.88
2022-09-05T03:34:52.446Z,12.88
2022-09-05T03:38:13.586Z,12.83
2022-09-05T03:41:01.086Z,12.74
2022-09-05T03:43:58.100Z,12.67
2022-09-05T03:46:38.459Z,12.63
2022-09-05T03:52:27.410Z,12.60
2022-09-05T03:57:07.615Z,12.52
2022-09-05T03:57:25.337Z,12.60
2022-09-05T03:59:25.242Z,12.60
2022-09-05T04:07:36.693Z,12.59
2022-09-05T04:08:14.411Z,12.62
2022-09-05T04:08:42.610Z,12.57
2022-09-05T04:11:21.199Z,12.57
2022-09-05T04:14:30.198Z,12.55
2022-09-05T04:17:10.566Z,12.47
2022-09-05T04:20:20.649Z,12.40
2022-09-05T04:23:05.938Z,12.52
2022-09-05T04:26:12.145Z,12.59
2022-09-05T04:28:55.445Z,12.62
2022-09-05T04:31:43.278Z,12.59
2022-09-05T04:34:43.515Z,12.62
2022-09-05T04:37:37.151Z,12.61
2022-09-05T04:40:46.625Z,12.52
2022-09-05T04:43:18.652Z,12.34
2022-09-05T04:46:18.275Z,12.40
2022-09-05T04:49:21.703Z,12.54
2022-09-05T04:52:01.278Z,12.64
2022-09-05T04:54:36.912Z,12.73
2022-09-05T04:57:54.466Z,12.62
2022-09-05T05:06:02.137Z,12.56
2022-09-05T05:06:08.546Z,12.59
2022-09-05T05:06:47.915Z,12.63
2022-09-05T05:09:31.045Z,12.74
2022-09-05T05:17:54.098Z,12.80
2022-09-05T05:18:14.078Z,12.66
2022-09-05T05:18:39.311Z,12.59
2022-09-05T05:21:26.073Z,12.59
2022-09-05T05:24:00.176Z,12.68
2022-09-05T05:26:45.489Z,12.65
2022-09-05T05:30:06.502Z,12.62
2022-09-05T05:32:46.070Z,12.59
2022-09-05T05:35:31.489Z,12.62
2022-09-05T05:38:25.453Z,12.72
2022-09-05T05:41:05.875Z,12.78
2022-09-05T05:43:46.241Z,12.84
2022-09-05T05:46:28.483Z,12.92
2022-09-05T05:49:14.804Z,12.91
2022-09-05T05:52:13.016Z,12.84
2022-09-05T05:55:50.734Z,12.83
2022-09-05T05:58:45.317Z,12.79
2022-09-05T06:01:50.141Z,12.89
2022-09-05T06:05:11.777Z,12.89
2022-09-05T06:10:30.360Z,12.89
2022-09-05T06:15:00.624Z,12.72
2022-09-05T06:15:23.287Z,12.83
2022-09-05T06:18:20.528Z,12.97
2022-09-05T06:22:09.314Z,12.99
2022-09-05T06:24:46.051Z,13.08
2022-09-05T06:28:01.361Z,13.19
2022-09-05T06:30:45.415Z,13.23
2022-09-05T06:33:30.146Z,13.40
2022-09-05T06:36:43.925Z,13.52
2022-09-05T06:39:51.811Z,13.64
2022-09-05T06:42:52.056Z,13.72
2022-09-05T06:45:43.855Z,13.74
2022-09-05T06:48:44.603Z,13.78
2022-09-05T06:51:28.156Z,13.89
2022-09-05T06:54:25.555Z,13.97
2022-09-05T06:57:25.867Z,14.03
2022-09-05T07:00:05.759Z,14.10
2022-09-05T07:02:58.978Z,14.24
2022-09-05T07:05:45.337Z,14.30
2022-09-05T07:08:35.808Z,14.46
2022-09-05T07:11:34.164Z,14.64
2022-09-05T07:14:20.223Z,14.79
2022-09-05T07:17:11.282Z,14.96
2022-09-05T07:19:54.787Z,15.14
2022-09-05T07:22:48.944Z,15.30
2022-09-05T07:25:27.171Z,15.45
2022-09-05T07:28:28.925Z,15.60
2022-09-05T07:31:03.924Z,15.80
2022-09-05T07:33:31.912Z,16.00
2022-09-05T07:36:30.914Z,16.13
2022-09-05T07:39:25.210Z,16.27
2022-09-05T07:41:56.722Z,16.40
2022-09-05T07:44:25.150Z,16.58
2022-09-05T07:47:23.952Z,16.74
2022-09-05T07:50:23.395Z,16.93
2022-09-05T07:56:48.203Z,16.99
2022-09-05T07:56:59.651Z,17.11
2022-09-05T07:58:32.646Z,17.19
2022-09-05T08:00:59.851Z,17.33
2022-09-05T08:03:29.233Z,17.49
2022-09-05T08:06:04.864Z,17.59
2022-09-05T08:09:21.453Z,17.67
2022-09-05T08:11:49.296Z,17.75
2022-09-05T08:14:44.517Z,17.88
2022-09-05T08:17:30.286Z,18.01
2022-09-05T08:20:09.203Z,18.15
2022-09-05T08:23:29.201Z,18.27
2022-09-05T08:26:15.056Z,18.42
2022-09-05T08:29:03.561Z,18.51
2022-09-05T08:31:46.374Z,18.68
2022-09-05T08:34:31.475Z,18.83
2022-09-05T08:37:21.053Z,18.86
2022-09-05T08:40:07.220Z,19.02
2022-09-05T08:44:27.382Z,19.17
2022-09-05T08:46:44.901Z,19.07
2022-09-05T08:50:08.032Z,19.31
2022-09-05T08:52:42.221Z,19.44
2022-09-05T08:55:38.597Z,19.50
2022-09-05T08:58:28.718Z,19.63
2022-09-05T09:02:45.079Z,19.74
2022-09-05T09:06:12.683Z,19.88
2022-09-05T09:09:05.807Z,20.02
2022-09-05T09:11:46.727Z,20.09
2022-09-05T09:14:55.225Z,20.17
2022-09-05T09:17:49.308Z,20.28
2022-09-05T09:20:36.477Z,20.29
2022-09-05T09:23:31.760Z,20.32
2022-09-05T09:26:15.642Z,20.43
2022-09-05T09:28:51.968Z,20.53
2022-09-05T09:32:20.417Z,20.59
2022-09-05T09:35:19.982Z,20.70
2022-09-05T09:38:22.119Z,20.88
2022-09-05T09:41:19.269Z,21.00
2022-09-05T09:44:26.430Z,21.11
2022-09-05T09:46:53.754Z,21.24
2022-09-05T09:50:10.958Z,21.32
2022-09-05T09:53:19.288Z,21.38
2022-09-05T09:56:27.303Z,21.44
2022-09-05T09:59:14.754Z,21.50
2022-09-05T10:03:40.963Z,21.61
2022-09-05T10:10:39.642Z,21.66
2022-09-05T10:10:46.650Z,21.91
2022-09-05T10:12:24.039Z,21.99
2022-09-05T10:15:31.312Z,22.02
2022-09-05T10:18:32.486Z,22.00
2022-09-05T10:21:16.209Z,22.00
2022-09-05T10:24:24.643Z,22.02
2022-09-05T10:27:19.798Z,22.31
2022-09-05T10:29:53.285Z,22.58
2022-09-05T10:35:10.386Z,22.87
2022-09-05T10:35:40.512Z,23.07
2022-09-05T10:38:10.898Z,23.31
2022-09-05T10:40:46.400Z,23.55
2022-09-05T10:43:33.604Z,23.73
2022-09-05T10:46:50.835Z,23.81
2022-09-05T10:49:24.773Z,23.72
2022-09-05T10:52:31.899Z,23.95
2022-09-05T10:55:22.018Z,23.98
2022-09-05T10:58:47.067Z,23.96
2022-09-05T11:02:27.979Z,23.87
2022-09-05T11:04:51.001Z,23.77
2022-09-05T11:07:38.510Z,23.93
2022-09-05T11:10:17.256Z,24.12
2022-09-05T11:13:06.255Z,24.20
2022-09-05T11:16:06.076Z,24.29
2022-09-05T11:19:02.093Z,24.45
2022-09-05T11:22:02.194Z,24.44
2022-09-05T11:24:59.954Z,24.41
2022-09-05T11:27:41.439Z,24.31
2022-09-05T11:30:29.300Z,24.28
2022-09-05T11:39:48.130Z,24.35
2022-09-05T11:40:04.354Z,24.43
2022-09-05T11:40:31.265Z,24.46
2022-09-05T11:42:56.945Z,24.47
2022-09-05T11:46:15.434Z,24.45
2022-09-05T11:49:15.182Z,24.50
2022-09-05T11:52:13.815Z,24.53
2022-09-05T11:55:21.438Z,24.51
2022-09-05T11:58:43.985Z,24.53
2022-09-05T12:01:43.249Z,24.60
2022-09-05T12:04:17.765Z,24.74
2022-09-05T12:06:56.684Z,24.85
2022-09-05T12:09:37.850Z,24.94
2022-09-05T12:13:07.543Z,25.09
2022-09-05T12:15:34.565Z,25.28
2022-09-05T12:18:19.622Z,25.40
2022-09-05T12:21:19.899Z,25.65
2022-09-05T12:25:16.471Z,25.85
2022-09-05T12:30:03.377Z,25.81
2022-09-05T12:33:56.643Z,25.82
2022-09-05T12:36:07.009Z,25.78
2022-09-05T12:41:33.272Z,25.85
2022-09-05T12:41:41.715Z,25.82
2022-09-05T12:42:56.313Z,26.05
2022-09-05T12:45:50.137Z,26.29
2022-09-05T12:48:41.406Z,26.41
2022-09-05T12:51:45.431Z,26.55
2022-09-05T12:54:27.864Z,26.50
2022-09-05T12:58:24.687Z,26.51
2022-09-05T13:03:14.501Z,26.64
2022-09-05T13:03:28.694Z,26.68
2022-09-05T13:06:08.621Z,26.55
2022-09-05T13:09:00.071Z,26.38
2022-09-05T13:14:52.572Z,26.33
2022-09-05T13:15:02.618Z,26.19
2022-09-05T13:17:16.562Z,26.10
2022-09-05T13:19:52.219Z,26.06
2022-09-05T13:22:24.251Z,26.04
2022-09-05T13:25:08.778Z,25.98
2022-09-05T13:27:46.466Z,25.99
2022-09-05T13:36:28.193Z,26.03
2022-09-05T13:37:59.206Z,25.64
2022-09-05T13:38:15.759Z,25.88
2022-09-05T13:39:28.244Z,25.76
2022-09-05T13:42:03.355Z,25.98
2022-09-05T13:44:40.801Z,26.10
2022-09-05T13:47:29.650Z,26.22
2022-09-05T13:50:31.605Z,26.34
2022-09-05T13:53:26.163Z,26.37
2022-09-05T13:56:03.485Z,26.44
2022-09-05T13:58:56.621Z,26.46
2022-09-05T14:02:25.116Z,26.48
2022-09-05T14:05:20.060Z,26.40
2022-09-05T14:08:11.263Z,26.39
2022-09-05T14:11:02.082Z,26.21
2022-09-05T14:14:11.090Z,26.24
2022-09-05T14:16:54.626Z,26.39
2022-09-05T14:19:43.501Z,26.55
2022-09-05T14:22:30.898Z,26.57
2022-09-05T14:25:00.204Z,26.67
2022-09-05T14:27:31.882Z,26.70
2022-09-05T14:31:08.187Z,26.69
2022-09-05T14:37:50.094Z,26.62
2022-09-05T14:37:55.239Z,26.54
2022-09-05T14:40:29.935Z,26.45
2022-09-05T14:43:26.774Z,26.48
2022-09-05T14:46:34.947Z,26.58
2022-09-05T14:49:39.962Z,26.73
2022-09-05T14:52:43.356Z,26.81
2022-09-05T15:02:43.687Z,26.92
2022-09-05T15:02:58.670Z,26.90
2022-09-05T15:06:39.148Z,27.04
2022-09-05T15:12:11.153Z,27.07
2022-09-05T15:12:33.296Z,27.16
2022-09-05T15:15:03.729Z,27.19
2022-09-05T15:17:31.142Z,27.22
2022-09-05T15:20:08.750Z,27.23
2022-09-05T15:22:41.608Z,27.20
2022-09-05T15:25:19.899Z,27.08
2022-09-05T15:27:49.410Z,26.98
2022-09-05T15:30:28.080Z,26.99
2022-09-05T15:33:17.774Z,26.89
2022-09-05T15:35:52.051Z,26.77
2022-09-05T15:38:30.174Z,26.66
2022-09-05T15:41:17.230Z,26.59
2022-09-05T15:43:58.191Z,26.50
2022-09-05T15:46:38.830Z,26.48
2022-09-05T15:49:31.401Z,26.42
2022-09-05T15:52:04.814Z,26.33
2022-09-05T15:54:40.635Z,26.30
2022-09-05T15:57:17.761Z,26.21
2022-09-05T15:59:51.796Z,26.19
2022-09-05T16:02:26.607Z,26.14
2022-09-05T16:10:33.646Z,26.13
2022-09-05T16:10:50.408Z,26.17
2022-09-05T16:14:46.508Z,26.16
2022-09-05T16:23:21.010Z,26.16
2022-09-05T16:23:25.483Z,26.13
2022-09-05T16:24:06.131Z,26.10
2022-09-05T16:26:41.914Z,26.13
2022-09-05T16:29:30.894Z,26.14
2022-09-05T16:32:02.067Z,26.24
2022-09-05T16:35:07.762Z,26.24
2022-09-05T16:37:54.926Z,26.15
2022-09-05T16:40:34.187Z,26.06
2022-09-05T16:43:16.258Z,25.98
2022-09-05T16:46:05.484Z,25.90
2022-09-05T16:49:13.339Z,25.81
2022-09-05T16:51:58.317Z,25.73
2022-09-05T16:54:45.933Z,25.71
2022-09-05T16:57:22.431Z,25.63
2022-09-05T16:59:50.817Z,25.60
2022-09-05T17:02:30.230Z,25.48
2022-09-05T17:05:09.541Z,25.36
2022-09-05T17:08:06.906Z,25.22
2022-09-05T17:10:50.695Z,25.12
2022-09-05T17:13:56.865Z,24.92
2022-09-05T17:16:41.708Z,24.76
2022-09-05T17:19:22.005Z,24.68
2022-09-05T17:29:17.192Z,24.56
2022-09-05T17:29:33.772Z,24.46
2022-09-05T17:29:45.686Z,24.30
2022-09-05T17:31:53.654Z,24.17
2022-09-05T17:35:17.744Z,24.00
2022-09-05T17:38:33.384Z,23.87
2022-09-05T17:41:53.923Z,23.69
2022-09-05T17:44:36.335Z,23.63
2022-09-05T17:47:25.897Z,23.55
2022-09-05T17:50:20.022Z,23.40
2022-09-05T17:53:26.729Z,23.29
2022-09-05T17:55:54.755Z,23.18
2022-09-05T17:58:49.642Z,23.11
2022-09-05T18:01:28.745Z,22.93
2022-09-05T18:04:16.475Z,22.82
2022-09-05T18:06:59.450Z,22.63
2022-09-05T18:09:48.111Z,22.50
2022-09-05T18:13:14.254Z,22.39
2022-09-05T18:15:35.598Z,22.28
2022-09-05T18:18:33.305Z,22.22
2022-09-05T18:21:21.578Z,22.06
2022-09-05T18:24:03.846Z,21.93
2022-09-05T18:26:42.671Z,21.78
2022-09-05T18:29:58.358Z,21.63
2022-09-05T18:32:53.809Z,21.47
2022-09-05T18:35:36.906Z,21.35
2022-09-05T18:38:04.635Z,21.30
2022-09-05T18:40:55.992Z,21.23
2022-09-05T18:43:36.891Z,21.21
2022-09-05T18:46:40.816Z,21.18
2022-09-05T18:50:25.216Z,21.05
2022-09-05T18:52:25.131Z,21.01
2022-09-05T18:55:49.407Z,20.98
2022-09-05T18:57:58.025Z,20.86
2022-09-05T19:00:48.765Z,20.70
2022-09-05T19:03:28.618Z,20.59
2022-09-05T19:06:35.589Z,20.40
2022-09-05T19:09:03.773Z,20.29
2022-09-05T19:11:52.991Z,20.33
2022-09-05T19:14:42.838Z,20.30
2022-09-05T19:17:36.850Z,20.24
2022-09-05T19:20:31.743Z,20.16
2022-09-05T19:23:13.522Z,20.10
2022-09-05T19:26:09.941Z,19.97
2022-09-05T19:32:59.820Z,19.95
2022-09-05T19:37:06.084Z,19.73
2022-09-05T19:37:10.685Z,19.69
2022-09-05T19:37:29.437Z,19.62
2022-09-05T19:47:25.611Z,19.63
2022-09-05T19:47:35.918Z,19.37
2022-09-05T19:47:51.479Z,19.54
2022-09-05T19:48:34.250Z,19.08
2022-09-05T19:51:17.598Z,18.94
2022-09-05T19:54:05.411Z,18.84
2022-09-05T19:56:44.143Z,18.68
2022-09-05T19:59:24.594Z,18.56
2022-09-05T20:01:52.983Z,18.46
2022-09-05T20:04:21.610Z,18.37
2022-09-05T20:06:50.007Z,18.28
2022-09-05T20:09:23.816Z,18.18
2022-09-05T20:11:59.711Z,18.18
2022-09-05T20:14:35.523Z,18.12
2022-09-05T20:17:19.122Z,17.76
2022-09-05T20:19:45.832Z,17.74
2022-09-05T20:22:48.088Z,17.71
2022-09-05T20:25:44.015Z,17.69
2022-09-05T20:28:27.451Z,17.65
2022-09-05T20:30:59.659Z,17.67
2022-09-05T20:33:47.975Z,17.67
2022-09-05T20:42:35.549Z,17.62
2022-09-05T20:43:18.211Z,17.39
2022-09-05T20:43:35.548Z,17.24
2022-09-05T20:48:01.946Z,17.17
2022-09-05T20:54:08.016Z,17.08
2022-09-05T20:54:16.037Z,17.08
2022-09-05T20:54:34.866Z,17.03
2022-09-05T20:57:28.819Z,16.97
2022-09-05T20:59:56.938Z,16.86
2022-09-05T21:02:29.452Z,16.80
2022-09-05T21:05:10.111Z,16.86
2022-09-05T21:08:02.465Z,16.95
2022-09-05T21:10:54.948Z,16.91
2022-09-05T21:13:34.275Z,16.80
2022-09-05T21:16:01.727Z,16.82
2022-09-05T21:18:33.664Z,16.75
2022-09-05T21:23:32.859Z,16.59
2022-09-05T21:26:02.285Z,16.62
2022-09-05T21:28:39.586Z,16.63
2022-09-05T21:31:12.877Z,16.62
2022-09-05T21:33:45.144Z,16.57
2022-09-05T21:36:15.273Z,16.58
2022-09-05T21:38:43.428Z,16.61
2022-09-05T21:41:14.348Z,16.56
2022-09-05T21:47:34.191Z,16.64
2022-09-05T21:47:37.457Z,16.79
2022-09-05T21:49:18.559Z,16.67
2022-09-05T21:51:53.195Z,16.85
2022-09-05T21:59:13.765Z,16.91
2022-09-05T21:59:30.399Z,16.92
2022-09-05T22:00:12.795Z,16.91
2022-09-05T22:02:39.456Z,16.95
2022-09-05T22:05:06.363Z,16.97
2022-09-05T22:07:35.633Z,16.93
2022-09-05T22:10:06.296Z,16.85
2022-09-05T22:12:35.582Z,16.82
2022-09-05T22:15:26.525Z,16.75
2022-09-05T22:18:04.948Z,16.65
2022-09-05T22:20:45.428Z,16.68
2022-09-05T22:23:12.786Z,16.73
2022-09-05T22:25:39.716Z,16.69
2022-09-05T22:28:27.386Z,16.66
2022-09-05T22:31:07.611Z,16.62
2022-09-05T22:33:35.067Z,16.56
2022-09-05T22:36:01.919Z,16.47
2022-09-05T22:38:28.450Z,16.39
2022-09-05T22:40:58.001Z,16.27
2022-09-05T22:43:25.083Z,16.19
2022-09-05T22:45:59.144Z,16.21
2022-09-05T22:48:25.753Z,16.21
2022-09-05T22:50:52.330Z,16.23
2022-09-05T22:53:18.827Z,16.32
2022-09-05T22:55:45.340Z,16.30
2022-09-05T22:58:14.800Z,16.18
2022-09-05T23:00:41.849Z,16.09
2022-09-05T23:03:08.507Z,15.96
2022-09-05T23:05:35.860Z,15.91
2022-09-05T23:08:05.096Z,15.96
2022-09-05T23:10:32.823Z,16.01
2022-09-05T23:13:04.036Z,15.94
2022-09-05T23:15:30.587Z,15.87
2022-09-05T23:18:02.722Z,15.89
2022-09-05T23:20:31.916Z,15.95
2022-09-05T23:23:05.685Z,15.90
2022-09-05T23:25:34.991Z,15.84
2022-09-05T23:28:07.980Z,15.77
2022-09-05T23:30:39.224Z,15.77
2022-09-05T23:33:08.182Z,15.78
2022-09-05T23:35:36.463Z,15.87
2022-09-05T23:38:07.479Z,15.91
2022-09-05T23:40:33.983Z,15.94
2022-09-05T23:43:01.214Z,16.04
2022-09-05T23:45:30.289Z,16.07
2022-09-05T23:47:58.381Z,16.10
2022-09-05T23:50:27.172Z,16.10
2022-09-05T23:52:53.743Z,16.07
2022-09-05T23:55:23.245Z,16.02
2022-09-05T23:57:49.772Z,16.05
